Sn Luis Obisp, California
Current Conditions -  °F | °C
As of 6:56 PM on Thursday 18 Dec 2014 (Local Time) from KSBP Reporting Station
Clear Clear  
Wind Chill: 52°   Ceiling: Unl
Heat Index: 52°   Visibility: 10mi
Dew Point: 50°   Wind: 3mph
Humidity: 93%   Direction: 110°ESE
Pressure: 30.19"   Gusts: NA
Location:  35.2807°N, 120.661°W
Report Text: KSBP 190256Z 11003KT 10SM CLR 11/10 A3019 RMK AO2 SLP223 T01110100 53016
Loading
Personal Weather Stations






























Interactive Weather Map New forecast layout! Learn more

10-Day Weather Forecast

Advertisements
Track Severe Weather on mobile